Time;durP1;ratioP1;P1;durP2;ratioP2;P2;SDS_P1;SDS_P2;PMS_P1;PMS_P2;Temp;Humidity;BMP_temperature;BMP_pressure;BME280_temperature;BME280_humidity;BME280_pressure;Samples;Min_cycle;Max_cycle;Signal;HPM_P1;HPM_P2
2024/01/04 00:02:10;;;;;;;12.73;9.18;;;;;;;-146.58;100.00;69501.63;5030598;28;20041;-63
2024/01/04 00:04:38;;;;;;;16.73;8.00;;;;;;;-146.58;100.00;69501.63;5029210;28;20041;-63
2024/01/04 00:07:03;;;;;;;7.78;6.22;;;;;;;-146.58;100.00;69501.63;5030435;28;20021;-63
2024/01/04 00:09:29;;;;;;;12.75;8.00;;;;;;;-146.58;100.00;69501.63;5029790;28;20582;-63
2024/01/04 00:11:54;;;;;;;11.95;6.15;;;;;;;-146.58;100.00;69501.63;5034792;28;20037;-63
2024/01/04 00:14:20;;;;;;;9.02;5.70;;;;;;;-146.58;100.00;69501.63;5033128;28;20038;-63
2024/01/04 00:16:45;;;;;;;14.40;7.28;;;;;;;-146.58;100.00;69501.63;5034491;28;20028;-63
2024/01/04 00:19:10;;;;;;;16.83;9.35;;;;;;;-146.58;100.00;69501.63;5033223;28;20052;-63
2024/01/04 00:21:36;;;;;;;10.48;6.88;;;;;;;-146.58;100.00;69501.63;5034021;28;20453;-63
2024/01/04 00:24:01;;;;;;;16.63;6.80;;;;;;;-146.58;100.00;69501.63;5033284;28;20041;-63
2024/01/04 00:26:26;;;;;;;13.57;6.72;;;;;;;-146.58;100.00;69501.63;5034457;28;20508;-63
2024/01/04 00:28:52;;;;;;;16.15;6.97;;;;;;;-146.58;100.00;69501.63;5032883;28;20028;-63
2024/01/04 00:31:17;;;;;;;15.38;7.88;;;;;;;-146.58;100.00;69501.63;5034709;28;20499;-63
2024/01/04 00:33:42;;;;;;;9.25;6.68;;;;;;;-146.58;100.00;69501.63;5032875;28;20492;-62
2024/01/04 00:36:09;;;;;;;9.55;7.50;;;;;;;-146.58;100.00;69501.63;5034053;28;20075;-63
2024/01/04 00:38:35;;;;;;;10.65;6.95;;;;;;;-146.58;100.00;69501.63;5034103;28;20087;-63
2024/01/04 00:41:01;;;;;;;12.45;6.40;;;;;;;-146.58;100.00;69501.63;5032943;28;20049;-61
2024/01/04 00:43:27;;;;;;;12.05;7.13;;;;;;;-146.58;100.00;69501.63;5033503;28;20026;-64
2024/01/04 00:45:52;;;;;;;15.82;8.45;;;;;;;-146.58;100.00;69501.63;5032785;28;20102;-64
2024/01/04 00:48:18;;;;;;;14.45;8.77;;;;;;;-146.58;100.00;69501.63;5034302;28;20021;-63
2024/01/04 00:50:43;;;;;;;13.02;7.68;;;;;;;-146.58;100.00;69501.63;5032497;28;20053;-63
2024/01/04 00:53:09;;;;;;;9.25;7.97;;;;;;;-146.58;100.00;69501.63;5034118;28;20432;-64
2024/01/04 00:55:34;;;;;;;9.90;6.43;;;;;;;-146.58;100.00;69501.63;5032504;28;20049;-63
2024/01/04 00:58:02;;;;;;;15.07;9.02;;;;;;;-146.58;100.00;69501.63;5033685;28;20029;-63
2024/01/04 01:00:28;;;;;;;12.95;7.28;;;;;;;-146.58;100.00;69501.63;5032189;28;20048;-63
2024/01/04 01:02:53;;;;;;;7.85;6.28;;;;;;;-146.58;100.00;69501.63;5033908;28;20014;-62
2024/01/04 01:05:18;;;;;;;15.20;9.02;;;;;;;-146.58;100.00;69501.63;5032082;28;20099;-62
2024/01/04 01:07:44;;;;;;;11.57;7.93;;;;;;;-146.58;100.00;69501.63;5033577;28;20481;-63
2024/01/04 01:10:09;;;;;;;9.40;8.13;;;;;;;-146.58;100.00;69501.63;5032513;28;20421;-63
2024/01/04 01:12:35;;;;;;;14.52;8.55;;;;;;;-146.58;100.00;69501.63;5033035;28;20172;-62
2024/01/04 01:15:00;;;;;;;7.57;6.15;;;;;;;-146.58;100.00;69501.63;5032376;28;20033;-63
2024/01/04 01:17:25;;;;;;;10.45;7.07;;;;;;;-146.58;100.00;69501.63;5033766;28;20021;-63
2024/01/04 01:19:51;;;;;;;12.38;7.03;;;;;;;-146.58;100.00;69501.63;5032157;28;20120;-63
2024/01/04 01:22:16;;;;;;;9.10;6.72;;;;;;;-146.58;100.00;69501.63;5032165;28;20097;-63
2024/01/04 01:24:42;;;;;;;10.80;7.47;;;;;;;-146.58;100.00;69501.63;5031998;28;20041;-63
2024/01/04 01:27:07;;;;;;;9.40;6.65;;;;;;;-146.58;100.00;69501.63;5033806;28;20026;-63
2024/01/04 01:29:32;;;;;;;14.10;7.13;;;;;;;-146.58;100.00;69501.63;5031468;28;20033;-63
2024/01/04 01:31:58;;;;;;;10.60;8.88;;;;;;;-146.58;100.00;69501.63;5033267;28;20021;-63
2024/01/04 01:34:23;;;;;;;14.00;8.27;;;;;;;-146.58;100.00;69501.63;5031966;28;20036;-63
2024/01/04 01:36:48;;;;;;;18.35;10.73;;;;;;;-146.58;100.00;69501.63;5032770;28;20079;-63
2024/01/04 01:39:14;;;;;;;13.80;9.65;;;;;;;-146.58;100.00;69501.63;5031726;28;20037;-63
2024/01/04 01:41:39;;;;;;;10.90;8.07;;;;;;;-146.58;100.00;69501.63;5032747;28;20033;-63
2024/01/04 01:44:05;;;;;;;11.88;8.55;;;;;;;-146.58;100.00;69501.63;5031413;28;20037;-63
2024/01/04 01:46:30;;;;;;;20.55;9.73;;;;;;;-146.58;100.00;69501.63;5032912;28;20030;-63
2024/01/04 01:48:55;;;;;;;12.90;7.55;;;;;;;-146.58;100.00;69501.63;5031771;28;20017;-63
2024/01/04 01:51:21;;;;;;;28.25;8.52;;;;;;;-146.58;100.00;69501.63;5033078;28;20036;-63
2024/01/04 01:53:46;;;;;;;18.88;8.60;;;;;;;-146.58;100.00;69501.63;5031421;28;20510;-63
2024/01/04 01:56:12;;;;;;;9.68;7.57;;;;;;;-146.58;100.00;69501.63;5033174;28;20057;-63
2024/01/04 01:58:37;;;;;;;14.15;6.53;;;;;;;-146.58;100.00;69501.63;5032718;28;20475;-63
2024/01/04 02:01:03;;;;;;;8.88;5.10;;;;;;;-146.58;100.00;69501.63;5031372;28;20041;-62
2024/01/04 02:03:28;;;;;;;9.15;5.85;;;;;;;-146.58;100.00;69501.63;5032636;28;20473;-62
2024/01/04 02:05:54;;;;;;;18.45;5.55;;;;;;;-146.58;100.00;69501.63;5031090;28;20041;-63
2024/01/04 02:08:19;;;;;;;5.63;5.05;;;;;;;-146.58;100.00;69501.63;5032506;28;20029;-63
2024/01/04 02:10:44;;;;;;;7.28;4.22;;;;;;;-146.58;100.00;69501.63;5031206;28;20413;-63
2024/01/04 02:13:10;;;;;;;13.93;6.10;;;;;;;-146.58;100.00;69501.63;5032385;28;20389;-63
2024/01/04 02:15:35;;;;;;;9.65;5.20;;;;;;;-146.58;100.00;69501.63;5030964;28;20109;-62
2024/01/04 02:18:01;;;;;;;6.53;4.70;;;;;;;-146.58;100.00;69501.63;5032434;28;20029;-62
2024/01/04 02:20:26;;;;;;;7.13;3.58;;;;;;;-146.58;100.00;69501.63;5030615;28;20037;-62
2024/01/04 02:22:52;;;;;;;5.55;4.25;;;;;;;-146.58;100.00;69501.63;5032485;28;20377;-63
2024/01/04 02:25:19;;;;;;;7.70;3.95;;;;;;;-146.58;100.00;69501.63;5031078;28;20052;-62
2024/01/04 02:27:44;;;;;;;10.77;4.68;;;;;;;-146.58;100.00;69501.63;5031877;28;20228;-62
2024/01/04 02:30:12;;;;;;;8.02;4.45;;;;;;;-146.58;100.00;69501.63;5030949;28;20045;-62
2024/01/04 02:32:38;;;;;;;15.45;4.13;;;;;;;-146.58;100.00;69501.63;5031619;28;20144;-62
2024/01/04 02:35:04;;;;;;;9.75;3.47;;;;;;;-146.58;100.00;69501.63;5030563;28;20041;-62
2024/01/04 02:37:29;;;;;;;4.72;2.53;;;;;;;-146.58;100.00;69501.63;5031729;28;20100;-62
2024/01/04 02:39:55;;;;;;;5.55;4.25;;;;;;;-146.58;100.00;69501.63;5030828;28;20061;-62
2024/01/04 02:42:20;;;;;;;7.60;4.32;;;;;;;-146.58;100.00;69501.63;5031738;28;20488;-62
2024/01/04 02:44:46;;;;;;;5.30;2.92;;;;;;;-146.58;100.00;69501.63;5030547;28;20044;-63
2024/01/04 02:47:11;;;;;;;12.20;4.90;;;;;;;-146.58;100.00;69501.63;5031925;28;20025;-63
2024/01/04 02:49:38;;;;;;;4.38;3.97;;;;;;;-146.58;100.00;69501.63;5030030;28;20412;-62
2024/01/04 02:52:03;;;;;;;7.22;4.45;;;;;;;-146.58;100.00;69501.63;5031929;28;20365;-62
2024/01/04 02:54:29;;;;;;;5.53;4.50;;;;;;;-146.58;100.00;69501.63;5030210;28;20048;-62
2024/01/04 02:56:54;;;;;;;4.35;2.83;;;;;;;-146.58;100.00;69501.63;5031871;28;20029;-62
2024/01/04 02:59:20;;;;;;;6.32;4.05;;;;;;;-146.58;100.00;69501.63;5030561;28;20431;-62
2024/01/04 03:01:48;;;;;;;8.90;3.90;;;;;;;-146.58;100.00;69501.63;5031327;28;20026;-62
2024/01/04 03:04:14;;;;;;;3.53;3.22;;;;;;;-146.58;100.00;69501.63;5029883;28;20038;-62
2024/01/04 03:06:39;;;;;;;6.40;4.10;;;;;;;-146.58;100.00;69501.63;5031443;28;20037;-62
2024/01/04 03:09:04;;;;;;;6.50;3.03;;;;;;;-146.58;100.00;69501.63;5030021;28;20041;-62
2024/01/04 03:11:30;;;;;;;5.60;3.63;;;;;;;-146.58;100.00;69501.63;5031183;28;20029;-63
2024/01/04 03:13:55;;;;;;;7.15;4.90;;;;;;;-146.58;100.00;69501.63;5030129;28;20132;-63
2024/01/04 03:16:22;;;;;;;5.55;3.67;;;;;;;-146.58;100.00;69501.63;5031352;28;20025;-63
2024/01/04 03:18:47;;;;;;;5.72;3.47;;;;;;;-146.58;100.00;69501.63;5029509;28;20389;-62
2024/01/04 03:21:14;;;;;;;10.07;3.85;;;;;;;-146.58;100.00;69501.63;5031520;28;20076;-63
2024/01/04 03:23:39;;;;;;;9.80;4.05;;;;;;;-146.58;100.00;69501.63;5029800;28;20493;-62
2024/01/04 03:26:05;;;;;;;8.52;5.07;;;;;;;-146.58;100.00;69501.63;5031072;28;20021;-62
2024/01/04 03:28:30;;;;;;;6.90;4.65;;;;;;;-146.58;100.00;69501.63;5031129;28;20029;-62
2024/01/04 03:30:55;;;;;;;6.90;4.10;;;;;;;-146.58;100.00;69501.63;5029809;28;20041;-62
2024/01/04 03:33:21;;;;;;;9.38;4.82;;;;;;;-146.58;100.00;69501.63;5029582;28;20306;-63
2024/01/04 03:35:46;;;;;;;5.32;3.60;;;;;;;-146.58;100.00;69501.63;5029462;28;20056;-63
2024/01/04 03:38:11;;;;;;;7.90;4.15;;;;;;;-146.58;100.00;69501.63;5031153;28;20103;-62
2024/01/04 03:40:37;;;;;;;8.73;3.58;;;;;;;-146.58;100.00;69501.63;5029339;28;20050;-62
2024/01/04 03:43:03;;;;;;;5.70;4.75;;;;;;;-146.58;100.00;69501.63;5030894;28;20052;-62
2024/01/04 03:45:29;;;;;;;16.20;7.25;;;;;;;-146.58;100.00;69501.63;5028794;28;20041;-62
2024/01/04 03:47:54;;;;;;;8.15;4.15;;;;;;;-146.58;100.00;69501.63;5031031;28;20045;-62
2024/01/04 03:50:20;;;;;;;5.63;3.22;;;;;;;-146.58;100.00;69501.63;5029375;28;20049;-62
2024/01/04 03:52:45;;;;;;;18.40;6.82;;;;;;;-146.58;100.00;69501.63;5030667;28;20029;-62
2024/01/04 03:55:11;;;;;;;7.07;3.20;;;;;;;-146.58;100.00;69501.63;5029662;28;20041;-62
2024/01/04 03:57:36;;;;;;;5.35;3.55;;;;;;;-146.58;100.00;69501.63;5030713;28;20021;-62
2024/01/04 04:00:03;;;;;;;7.38;3.13;;;;;;;-146.58;100.00;69501.63;5029519;28;20461;-62
2024/01/04 04:02:28;;;;;;;10.80;6.40;;;;;;;-146.58;100.00;69501.63;5030394;28;20029;-62
2024/01/04 04:04:56;;;;;;;3.88;3.53;;;;;;;-146.58;100.00;69501.63;5028893;28;20087;-62
2024/01/04 04:07:22;;;;;;;12.98;3.40;;;;;;;-146.58;100.00;69501.63;5031178;28;20017;-62
2024/01/04 04:09:47;;;;;;;5.95;3.15;;;;;;;-146.58;100.00;69501.63;5029351;28;20037;-62
2024/01/04 04:12:13;;;;;;;5.93;3.25;;;;;;;-146.58;100.00;69501.63;5030399;28;20028;-62
2024/01/04 04:14:40;;;;;;;8.43;4.93;;;;;;;-146.58;100.00;69501.63;5028948;28;20095;-62
2024/01/04 04:17:05;;;;;;;5.55;2.90;;;;;;;-146.58;100.00;69501.63;5031095;28;20017;-63
2024/01/04 04:19:31;;;;;;;7.32;2.92;;;;;;;-146.58;100.00;69501.63;5028725;28;20041;-62
2024/01/04 04:21:57;;;;;;;21.85;9.55;;;;;;;-146.58;100.00;69501.63;5030522;28;20075;-63
2024/01/04 04:24:23;;;;;;;16.23;6.03;;;;;;;-146.58;100.00;69501.63;5029303;28;20045;-63
2024/01/04 04:26:49;;;;;;;7.43;3.25;;;;;;;-146.58;100.00;69501.63;5029970;28;20022;-63
2024/01/04 04:29:14;;;;;;;14.35;6.70;;;;;;;-146.58;100.00;69501.63;5029522;28;20041;-63
2024/01/04 04:31:39;;;;;;;13.50;6.00;;;;;;;-146.58;100.00;69501.63;5030699;28;20034;-63
2024/01/04 04:34:05;;;;;;;5.30;3.55;;;;;;;-146.58;100.00;69501.63;5027270;28;20566;-63
2024/01/04 04:36:30;;;;;;;8.60;5.05;;;;;;;-146.58;100.00;69501.63;5030162;28;20021;-63
2024/01/04 04:39:00;;;;;;;8.95;3.55;;;;;;;-146.58;100.00;69501.63;5029630;28;20045;-63
2024/01/04 04:41:26;;;;;;;9.45;3.15;;;;;;;-146.58;100.00;69501.63;5029744;28;20485;-63
2024/01/04 04:43:51;;;;;;;3.75;2.90;;;;;;;-146.58;100.00;69501.63;5029271;28;20029;-63
2024/01/04 04:46:18;;;;;;;6.15;2.50;;;;;;;-146.58;100.00;69501.63;5030628;28;20083;-63
2024/01/04 04:48:44;;;;;;;4.88;2.97;;;;;;;-146.58;100.00;69501.63;5028605;28;20025;-63
2024/01/04 04:51:10;;;;;;;16.23;4.28;;;;;;;-146.58;100.00;69501.63;5030614;28;20377;-63
2024/01/04 04:53:35;;;;;;;5.80;3.00;;;;;;;-146.58;100.00;69501.63;5030479;28;20026;-63
2024/01/04 04:56:01;;;;;;;4.20;2.38;;;;;;;-146.58;100.00;69501.63;5029981;28;20052;-63
2024/01/04 04:58:29;;;;;;;3.95;2.53;;;;;;;-146.58;100.00;69501.63;5033961;28;20029;-63
2024/01/04 05:00:55;;;;;;;3.67;2.80;;;;;;;-146.58;100.00;69501.63;5032478;28;20139;-63
2024/01/04 05:03:20;;;;;;;3.35;2.90;;;;;;;-146.58;100.00;69501.63;5033734;28;20021;-63
2024/01/04 05:05:45;;;;;;;11.80;3.45;;;;;;;-146.58;100.00;69501.63;5032329;28;20123;-62
2024/01/04 05:08:11;;;;;;;4.95;2.50;;;;;;;-146.58;100.00;69501.63;5034016;28;20030;-62
2024/01/04 05:10:36;;;;;;;7.05;2.88;;;;;;;-146.58;100.00;69501.63;5032011;28;20524;-62
2024/01/04 05:13:02;;;;;;;6.03;2.53;;;;;;;-146.58;100.00;69501.63;5033292;28;20033;-62
2024/01/04 05:15:27;;;;;;;7.72;2.42;;;;;;;-146.58;100.00;69501.63;5031413;28;20041;-61
2024/01/04 05:17:53;;;;;;;9.70;2.80;;;;;;;-146.58;100.00;69501.63;5032049;28;20029;-62
2024/01/04 05:20:19;;;;;;;7.53;2.40;;;;;;;-146.58;100.00;69501.63;5030885;28;20677;-62
2024/01/04 05:22:45;;;;;;;7.65;4.05;;;;;;;-146.58;100.00;69501.63;5031789;28;20037;-62
2024/01/04 05:25:12;;;;;;;12.00;4.25;;;;;;;-146.58;100.00;69501.63;5030711;28;20053;-62
2024/01/04 05:27:38;;;;;;;5.65;1.90;;;;;;;-146.58;100.00;69501.63;5032916;28;20075;-59
2024/01/04 05:30:07;;;;;;;3.28;1.90;;;;;;;-146.58;100.00;69501.63;5031619;28;20074;-59
2024/01/04 05:32:33;;;;;;;;;;;;;;;-146.58;100.00;69501.63;5033398;28;20112;-59
2024/01/04 05:34:59;;;;;;;6.10;2.28;;;;;;;-146.58;100.00;69501.63;5032182;28;19917;-59
2024/01/04 05:37:24;;;;;;;5.22;2.20;;;;;;;-146.58;100.00;69501.63;5033321;28;20472;-59
2024/01/04 05:39:49;;;;;;;6.70;3.28;;;;;;;-146.58;100.00;69501.63;5031758;28;20052;-59
2024/01/04 05:42:15;;;;;;;7.72;3.75;;;;;;;-146.58;100.00;69501.63;5032524;28;20543;-59
2024/01/04 05:44:40;;;;;;;2.53;2.33;;;;;;;-146.58;100.00;69501.63;5031562;28;20506;-59
2024/01/04 05:47:07;;;;;;;3.17;2.70;;;;;;;-146.58;100.00;69501.63;5032987;28;20029;-59
2024/01/04 05:49:32;;;;;;;3.88;2.15;;;;;;;-146.58;100.00;69501.63;5031334;28;20069;-59
2024/01/04 05:51:58;;;;;;;5.60;2.28;;;;;;;-146.58;100.00;69501.63;5032988;28;20049;-59
2024/01/04 05:54:23;;;;;;;7.07;2.65;;;;;;;-146.58;100.00;69501.63;5031417;28;20040;-59
2024/01/04 05:56:49;;;;;;;4.00;2.30;;;;;;;-146.58;100.00;69501.63;5032934;28;20018;-59
2024/01/04 05:59:14;;;;;;;4.43;2.40;;;;;;;-146.58;100.00;69501.63;5031559;28;20037;-60
2024/01/04 06:01:39;;;;;;;6.75;2.72;;;;;;;-146.58;100.00;69501.63;5027743;28;20045;-59
2024/01/04 06:04:05;;;;;;;8.68;3.28;;;;;;;-146.58;100.00;69501.63;5030158;28;20045;-59
2024/01/04 06:06:31;;;;;;;7.82;2.60;;;;;;;-146.58;100.00;69501.63;5031444;28;20083;-59
2024/01/04 06:08:56;;;;;;;8.82;2.55;;;;;;;-146.58;100.00;69501.63;5029298;28;20405;-60
2024/01/04 06:11:21;;;;;;;6.97;2.22;;;;;;;-146.58;100.00;69501.63;5029111;28;20025;-59
2024/01/04 06:13:47;;;;;;;1.98;1.88;;;;;;;-146.58;100.00;69501.63;5029913;28;20362;-59
2024/01/04 06:16:12;;;;;;;7.15;2.40;;;;;;;-146.58;100.00;69501.63;5031352;28;20550;-59
2024/01/04 06:18:38;;;;;;;2.90;2.58;;;;;;;-146.58;100.00;69501.63;5029658;28;20443;-59
2024/01/04 06:21:05;;;;;;;3.92;2.45;;;;;;;-146.58;100.00;69501.63;5031472;28;20026;-59
2024/01/04 06:23:31;;;;;;;21.05;3.55;;;;;;;-146.58;100.00;69501.63;5030674;28;20039;-59
2024/01/04 06:25:56;;;;;;;3.00;2.10;;;;;;;-146.58;100.00;69501.63;5029599;28;20124;-59
2024/01/04 06:28:22;;;;;;;5.85;2.15;;;;;;;-146.58;100.00;69501.63;5031228;28;20029;-59
2024/01/04 06:30:48;;;;;;;9.43;4.30;;;;;;;-146.58;100.00;69501.63;5029010;28;20037;-59
2024/01/04 06:33:14;;;;;;;13.88;2.20;;;;;;;-146.58;100.00;69501.63;5031327;28;20034;-59
2024/01/04 06:35:40;;;;;;;17.25;3.17;;;;;;;-146.58;100.00;69501.63;5029850;28;20041;-59
2024/01/04 06:38:08;;;;;;;15.05;4.57;;;;;;;-146.58;100.00;69501.63;5031200;28;20102;-59
2024/01/04 06:40:38;;;;;;;10.48;2.35;;;;;;;-146.58;100.00;69501.63;5029761;28;20504;-59
2024/01/04 06:43:08;;;;;;;6.72;2.88;;;;;;;-146.58;100.00;69501.63;5031776;28;20112;-59
2024/01/04 06:45:36;;;;;;;6.43;2.15;;;;;;;-146.58;100.00;69501.63;5029105;28;20175;-59
2024/01/04 06:48:02;;;;;;;16.75;4.97;;;;;;;-146.58;100.00;69501.63;5031952;28;20137;-59
2024/01/04 06:50:27;;;;;;;9.02;4.22;;;;;;;-146.58;100.00;69501.63;5027218;28;20118;-59
2024/01/04 06:52:53;;;;;;;32.53;12.35;;;;;;;-146.58;100.00;69501.63;5031640;28;20022;-59
2024/01/04 06:55:18;;;;;;;12.32;7.30;;;;;;;-146.58;100.00;69501.63;5030192;28;20400;-59
2024/01/04 06:57:44;;;;;;;32.35;7.70;;;;;;;-146.58;100.00;69501.63;5031856;28;20455;-59
2024/01/04 07:00:09;;;;;;;21.55;5.95;;;;;;;-146.58;100.00;69501.63;5030154;28;20120;-59
2024/01/04 07:02:36;;;;;;;10.82;6.75;;;;;;;-146.58;100.00;69501.63;5030946;28;20056;-59
2024/01/04 07:05:05;;;;;;;7.80;3.80;;;;;;;-146.58;100.00;69501.63;5030404;28;20488;-59
2024/01/04 07:07:32;;;;;;;8.60;2.53;;;;;;;-146.58;100.00;69501.63;5031721;28;20037;-59
2024/01/04 07:09:57;;;;;;;9.15;3.42;;;;;;;-146.58;100.00;69501.63;5029293;28;20061;-59
2024/01/04 07:12:24;;;;;;;6.28;2.90;;;;;;;-146.58;100.00;69501.63;5030468;28;20032;-59
2024/01/04 07:14:50;;;;;;;4.90;2.92;;;;;;;-146.58;100.00;69501.63;5030222;28;20061;-59
2024/01/04 07:17:16;;;;;;;6.95;3.08;;;;;;;-146.58;100.00;69501.63;5029234;28;20065;-59
2024/01/04 07:19:45;;;;;;;11.82;3.17;;;;;;;-146.58;100.00;69501.63;5028674;28;20044;-59
2024/01/04 07:22:11;;;;;;;3.83;3.42;;;;;;;-146.58;100.00;69501.63;5031179;28;20554;-59
2024/01/04 07:24:36;;;;;;;6.72;3.08;;;;;;;-146.58;100.00;69501.63;5028029;28;20041;-59
2024/01/04 07:27:03;;;;;;;8.18;3.28;;;;;;;-146.58;100.00;69501.63;5031356;28;20467;-58
2024/01/04 07:29:30;;;;;;;17.75;5.93;;;;;;;-146.58;100.00;69501.63;5029772;28;20041;-59
2024/01/04 07:31:55;;;;;;;9.05;2.70;;;;;;;-146.58;100.00;69501.63;5030920;28;20068;-59
2024/01/04 07:34:21;;;;;;;14.52;3.42;;;;;;;-146.58;100.00;69501.63;5029670;28;20432;-59
2024/01/04 07:36:47;;;;;;;5.45;2.03;;;;;;;-146.58;100.00;69501.63;5030745;28;20029;-59
2024/01/04 07:39:13;;;;;;;5.57;3.10;;;;;;;-146.58;100.00;69501.63;5029344;28;20034;-59
2024/01/04 07:41:38;;;;;;;9.10;2.97;;;;;;;-146.58;100.00;69501.63;5030939;28;20022;-59
2024/01/04 07:44:04;;;;;;;3.17;2.50;;;;;;;-146.58;100.00;69501.63;5029590;28;20091;-58
2024/01/04 07:46:30;;;;;;;4.47;2.92;;;;;;;-146.58;100.00;69501.63;5030520;28;20098;-59
2024/01/04 07:48:56;;;;;;;8.75;4.53;;;;;;;-146.58;100.00;69501.63;5029860;28;20041;-59
2024/01/04 07:51:22;;;;;;;7.20;3.92;;;;;;;-146.58;100.00;69501.63;5031015;28;20029;-59
2024/01/04 07:53:47;;;;;;;9.82;3.30;;;;;;;-146.58;100.00;69501.63;5029203;28;20025;-59
2024/01/04 07:56:12;;;;;;;7.72;2.55;;;;;;;-146.58;100.00;69501.63;5030910;28;20025;-58
2024/01/04 07:58:38;;;;;;;5.28;3.60;;;;;;;-146.58;100.00;69501.63;5029017;28;20033;-58
2024/01/04 08:01:03;;;;;;;6.22;3.65;;;;;;;-146.58;100.00;69501.63;5028930;28;20018;-59
2024/01/04 08:03:30;;;;;;;14.98;3.63;;;;;;;-146.58;100.00;69501.63;5028694;28;20496;-58
2024/01/04 08:05:56;;;;;;;11.73;4.78;;;;;;;-146.58;100.00;69501.63;5027386;28;20037;-58
2024/01/04 08:08:21;;;;;;;5.22;3.42;;;;;;;-146.58;100.00;69501.63;5028887;28;20029;-59
2024/01/04 08:10:46;;;;;;;7.65;2.95;;;;;;;-146.58;100.00;69501.63;5027386;28;20521;-58
2024/01/04 08:13:12;;;;;;;16.08;4.25;;;;;;;-146.58;100.00;69501.63;5029360;28;20087;-58
2024/01/04 08:15:37;;;;;;;7.43;3.47;;;;;;;-146.58;100.00;69501.63;5027769;28;20037;-59
2024/01/04 08:18:03;;;;;;;4.95;2.63;;;;;;;-146.58;100.00;69501.63;5031159;28;20029;-59
2024/01/04 08:20:28;;;;;;;4.95;2.72;;;;;;;-146.58;100.00;69501.63;5029022;28;20522;-59
2024/01/04 08:22:55;;;;;;;2.83;2.63;;;;;;;-146.58;100.00;69501.63;5030227;28;20021;-59
2024/01/04 08:25:20;;;;;;;22.00;5.35;;;;;;;-146.58;100.00;69501.63;5027599;28;20048;-59
2024/01/04 08:27:46;;;;;;;10.38;3.58;;;;;;;-146.58;100.00;69501.63;5030314;28;20366;-59
2024/01/04 08:30:12;;;;;;;5.25;2.70;;;;;;;-146.58;100.00;69501.63;5028712;28;20046;-59
2024/01/04 08:32:38;;;;;;;4.50;2.25;;;;;;;-146.58;100.00;69501.63;5034098;28;20026;-59
2024/01/04 08:35:04;;;;;;;5.10;3.00;;;;;;;-146.58;100.00;69501.63;5032819;28;20041;-59
2024/01/04 08:37:29;;;;;;;16.23;5.95;;;;;;;-146.58;100.00;69501.63;5033840;28;20112;-59
2024/01/04 08:39:55;;;;;;;8.98;5.82;;;;;;;-146.58;100.00;69501.63;5033170;28;20570;-59
2024/01/04 08:42:20;;;;;;;12.52;7.15;;;;;;;-146.58;100.00;69501.63;5034455;28;20060;-59
2024/01/04 08:44:45;;;;;;;44.70;19.60;;;;;;;-146.58;100.00;69501.63;5032315;28;20045;-59
2024/01/04 08:47:11;;;;;;;47.75;20.27;;;;;;;-146.58;100.00;69501.63;5033719;28;20021;-58
2024/01/04 08:49:36;;;;;;;47.17;21.08;;;;;;;-146.58;100.00;69501.63;5032523;28;20041;-58
2024/01/04 08:52:02;;;;;;;36.30;19.10;;;;;;;-146.58;100.00;69501.63;5034010;28;20022;-58
2024/01/04 08:54:28;;;;;;;58.58;33.28;;;;;;;-146.58;100.00;69501.63;5032778;28;20033;-59
2024/01/04 08:56:54;;;;;;;37.65;25.98;;;;;;;-146.58;100.00;69501.63;5034434;28;20037;-59
2024/01/04 08:59:19;;;;;;;19.00;11.88;;;;;;;-146.58;100.00;69501.63;5032657;28;20510;-59
2024/01/04 09:01:45;;;;;;;11.35;5.72;;;;;;;-146.58;100.00;69501.63;5033925;28;20029;-59
2024/01/04 09:04:10;;;;;;;14.90;8.55;;;;;;;-146.58;100.00;69501.63;5032686;28;20048;-59
2024/01/04 09:06:36;;;;;;;10.05;5.25;;;;;;;-146.58;100.00;69501.63;5033677;28;20060;-59
2024/01/04 09:09:05;;;;;;;26.85;8.50;;;;;;;-146.58;100.00;69501.63;5032580;28;20033;-59
2024/01/04 09:11:30;;;;;;;3.35;2.92;;;;;;;-146.58;100.00;69501.63;5033940;28;20048;-58
2024/01/04 09:13:57;;;;;;;6.13;3.33;;;;;;;-146.58;100.00;69501.63;5032214;28;20115;-59
2024/01/04 09:16:22;;;;;;;4.80;2.53;;;;;;;-146.58;100.00;69501.63;5034030;28;20021;-58
2024/01/04 09:18:48;;;;;;;3.85;3.38;;;;;;;-146.58;100.00;69501.63;5032409;28;20026;-58
2024/01/04 09:21:14;;;;;;;4.18;2.75;;;;;;;-146.58;100.00;69501.63;5033545;28;20404;-59
2024/01/04 09:23:39;;;;;;;4.43;3.75;;;;;;;-146.58;100.00;69501.63;5032140;28;20017;-58
2024/01/04 09:26:08;;;;;;;13.07;4.53;;;;;;;-146.58;100.00;69501.63;5033910;28;20434;-58
2024/01/04 09:28:34;;;;;;;4.80;2.45;;;;;;;-146.58;100.00;69501.63;5031761;28;20026;-58
2024/01/04 09:31:00;;;;;;;6.13;2.95;;;;;;;-146.58;100.00;69501.63;5033632;28;20029;-59
2024/01/04 09:33:25;;;;;;;7.10;2.40;;;;;;;-146.58;100.00;69501.63;5033222;28;20024;-58
2024/01/04 09:35:50;;;;;;;11.55;4.00;;;;;;;-146.58;100.00;69501.63;5031772;28;20432;-59
2024/01/04 09:38:16;;;;;;;6.13;2.75;;;;;;;-146.58;100.00;69501.63;5033348;28;20040;-59
2024/01/04 09:40:42;;;;;;;7.63;2.67;;;;;;;-146.58;100.00;69501.63;5031707;28;20076;-59
2024/01/04 09:43:09;;;;;;;5.13;2.70;;;;;;;-146.58;100.00;69501.63;5032293;28;20393;-59
2024/01/04 09:45:37;;;;;;;13.00;4.88;;;;;;;-146.58;100.00;69501.63;5031592;28;20045;-59
2024/01/04 09:48:07;;;;;;;3.97;2.57;;;;;;;-146.58;100.00;69501.63;5033256;28;20037;-59
2024/01/04 09:50:34;;;;;;;13.65;5.40;;;;;;;-146.58;100.00;69501.63;5031256;28;20495;-59
2024/01/04 09:53:01;;;;;;;4.40;2.70;;;;;;;-146.58;100.00;69501.63;5032992;28;20022;-59
2024/01/04 09:55:26;;;;;;;8.75;3.40;;;;;;;-146.58;100.00;69501.63;5031459;28;20038;-59
2024/01/04 09:57:52;;;;;;;16.92;3.85;;;;;;;-146.58;100.00;69501.63;5033226;28;20033;-59
2024/01/04 10:00:18;;;;;;;13.50;3.97;;;;;;;-146.58;100.00;69501.63;5031154;28;20464;-59
2024/01/04 10:02:43;;;;;;;10.55;3.17;;;;;;;-146.58;100.00;69501.63;5032573;28;20095;-58
2024/01/04 10:05:13;;;;;;;6.75;2.75;;;;;;;-146.58;100.00;69501.63;5031679;28;20037;-59
2024/01/04 10:07:44;;;;;;;4.55;2.38;;;;;;;-146.58;100.00;69501.63;5032666;28;20025;-59
2024/01/04 10:10:17;;;;;;;4.43;3.00;;;;;;;-146.58;100.00;69501.63;5031504;28;20042;-59
2024/01/04 10:12:42;;;;;;;2.90;2.08;;;;;;;-146.58;100.00;69501.63;5032511;28;20116;-59
2024/01/04 10:15:11;;;;;;;4.10;2.58;;;;;;;-146.58;100.00;69501.63;5030973;28;20129;-59
2024/01/04 10:17:37;;;;;;;;;;;;;;;-146.58;100.00;69501.63;5033232;28;20029;-59
2024/01/04 10:20:04;;;;;;;3.38;2.72;;;;;;;-146.58;100.00;69501.63;5031306;28;19920;-59
2024/01/04 10:22:29;;;;;;;8.13;3.38;;;;;;;-146.58;100.00;69501.63;5032298;28;20056;-59
2024/01/04 10:25:06;;;;;;;4.50;2.50;;;;;;;-146.58;100.00;69501.63;5031029;28;20500;-59
2024/01/04 10:27:31;;;;;;;8.98;2.60;;;;;;;-146.58;100.00;69501.63;5032164;28;20559;-58
2024/01/04 10:30:03;;;;;;;7.55;2.78;;;;;;;-146.58;100.00;69501.63;5030999;28;20045;-59
2024/01/04 10:32:28;;;;;;;3.92;2.35;;;;;;;-146.58;100.00;69501.63;5032229;28;20113;-59
2024/01/04 10:35:03;;;;;;;4.28;2.38;;;;;;;-146.58;100.00;69501.63;5030848;28;20041;-59
2024/01/04 10:37:28;;;;;;;3.45;2.10;;;;;;;-146.58;100.00;69501.63;5031967;28;20124;-59
2024/01/04 10:39:57;;;;;;;5.88;4.03;;;;;;;-146.58;100.00;69501.63;5030943;28;20067;-59
2024/01/04 10:42:23;;;;;;;5.78;2.00;;;;;;;-146.58;100.00;69501.63;5031746;28;20061;-59
2024/01/04 10:44:55;;;;;;;2.55;2.33;;;;;;;-146.58;100.00;69501.63;5030116;28;20061;-59
2024/01/04 10:47:21;;;;;;;8.73;2.92;;;;;;;-146.58;100.00;69501.63;5032078;28;20497;-59
2024/01/04 10:49:48;;;;;;;6.80;2.65;;;;;;;-146.58;100.00;69501.63;5030286;28;20120;-59
2024/01/04 10:52:17;;;;;;;21.42;3.50;;;;;;;-146.58;100.00;69501.63;5032008;28;20380;-59
2024/01/04 10:54:43;;;;;;;6.00;2.58;;;;;;;-146.58;100.00;69501.63;5030362;28;20432;-59
2024/01/04 10:57:10;;;;;;;6.53;1.85;;;;;;;-146.58;100.00;69501.63;5031627;28;20542;-59
2024/01/04 10:59:36;;;;;;;7.53;4.28;;;;;;;-146.58;100.00;69501.63;5030207;28;20076;-58
2024/01/04 11:02:02;;;;;;;6.30;2.50;;;;;;;-146.58;100.00;69501.63;5031884;28;20098;-59